sensor_id;sensor_type;location;lat;lon;timestamp;pressure;altitude;pressure_sealevel;temperature;humidity
78855;BME280;68206;59.956;30.234;2024-03-02T00:00:56;102638.72;;;9.19;42.78
78855;BME280;68206;59.956;30.234;2024-03-02T00:03:24;102647.59;;;9.21;42.97
78855;BME280;68206;59.956;30.234;2024-03-02T00:05:53;102644.03;;;9.21;42.73
78855;BME280;68206;59.956;30.234;2024-03-02T00:08:24;102638.78;;;9.22;43.44
78855;BME280;68206;59.956;30.234;2024-03-02T00:10:57;102635.22;;;9.22;43.25
78855;BME280;68206;59.956;30.234;2024-03-02T00:13:26;102642.31;;;9.23;43.35
78855;BME280;68206;59.956;30.234;2024-03-02T00:15:55;102640.53;;;9.23;42.81
78855;BME280;68206;59.956;30.234;2024-03-02T00:18:26;102646.72;;;9.24;43.23
78855;BME280;68206;59.956;30.234;2024-03-02T00:20:55;102644.97;;;9.26;43.14
78855;BME280;68206;59.956;30.234;2024-03-02T00:23:27;102640.56;;;9.26;43.03
78855;BME280;68206;59.956;30.234;2024-03-02T00:25:59;102647.63;;;9.27;43.49
78855;BME280;68206;59.956;30.234;2024-03-02T00:28:30;102652.91;;;9.27;43.19
78855;BME280;68206;59.956;30.234;2024-03-02T00:31:03;102652.03;;;9.27;43.47
78855;BME280;68206;59.956;30.234;2024-03-02T00:33:33;102652.94;;;9.29;43.20
78855;BME280;68206;59.956;30.234;2024-03-02T00:36:03;102646.78;;;9.30;43.43
78855;BME280;68206;59.956;30.234;2024-03-02T00:38:44;102643.22;;;9.31;43.09
78855;BME280;68206;59.956;30.234;2024-03-02T00:41:19;102642.34;;;9.32;42.92
78855;BME280;68206;59.956;30.234;2024-03-02T00:43:56;102636.16;;;9.27;43.35
78855;BME280;68206;59.956;30.234;2024-03-02T00:46:28;102648.53;;;9.32;43.20
78855;BME280;68206;59.956;30.234;2024-03-02T00:48:59;102644.13;;;9.33;43.50
78855;BME280;68206;59.956;30.234;2024-03-02T00:51:29;102640.59;;;9.32;43.36
78855;BME280;68206;59.956;30.234;2024-03-02T00:54:00;102647.69;;;9.35;43.28
78855;BME280;68206;59.956;30.234;2024-03-02T00:56:32;102644.13;;;9.35;43.44
78855;BME280;68206;59.956;30.234;2024-03-02T00:59:02;102635.31;;;9.36;42.64
78855;BME280;68206;59.956;30.234;2024-03-02T01:01:30;102637.09;;;9.37;43.43
78855;BME280;68206;59.956;30.234;2024-03-02T01:03:58;102643.25;;;9.37;43.61
78855;BME280;68206;59.956;30.234;2024-03-02T01:06:26;102641.50;;;9.38;43.57
78855;BME280;68206;59.956;30.234;2024-03-02T01:08:55;102641.50;;;9.38;42.97
78855;BME280;68206;59.956;30.234;2024-03-02T01:11:24;102642.41;;;9.40;43.33
78855;BME280;68206;59.956;30.234;2024-03-02T01:13:53;102638.88;;;9.39;43.67
78855;BME280;68206;59.956;30.234;2024-03-02T01:16:21;102644.19;;;9.41;43.08
78855;BME280;68206;59.956;30.234;2024-03-02T01:18:50;102641.53;;;9.41;43.02
78855;BME280;68206;59.956;30.234;2024-03-02T01:21:18;102638.88;;;9.41;42.95
78855;BME280;68206;59.956;30.234;2024-03-02T01:23:46;102639.78;;;9.43;43.58
78855;BME280;68206;59.956;30.234;2024-03-02T01:26:15;102631.84;;;9.43;43.32
78855;BME280;68206;59.956;30.234;2024-03-02T01:28:45;102635.34;;;9.43;43.48
78855;BME280;68206;59.956;30.234;2024-03-02T01:31:13;102633.59;;;9.44;43.51
78855;BME280;68206;59.956;30.234;2024-03-02T01:33:41;102632.69;;;9.43;43.09
78855;BME280;68206;59.956;30.234;2024-03-02T01:36:09;102635.38;;;9.45;43.30
78855;BME280;68206;59.956;30.234;2024-03-02T01:38:38;102634.50;;;9.46;43.70
78855;BME280;68206;59.956;30.234;2024-03-02T01:41:06;102636.28;;;9.47;43.41
78855;BME280;68206;59.956;30.234;2024-03-02T01:43:34;102628.31;;;9.47;43.15
78855;BME280;68206;59.956;30.234;2024-03-02T01:46:08;102627.44;;;9.48;44.10
78855;BME280;68206;59.956;30.234;2024-03-02T01:48:38;102624.81;;;9.48;43.24
78855;BME280;68206;59.956;30.234;2024-03-02T01:51:06;102622.16;;;9.49;43.21
78855;BME280;68206;59.956;30.234;2024-03-02T01:53:35;102620.38;;;9.50;43.72
78855;BME280;68206;59.956;30.234;2024-03-02T01:56:03;102631.84;;;9.50;43.15
78855;BME280;68206;59.956;30.234;2024-03-02T01:58:32;102625.69;;;9.51;43.36
78855;BME280;68206;59.956;30.234;2024-03-02T02:01:01;102624.81;;;9.51;43.75
78855;BME280;68206;59.956;30.234;2024-03-02T02:03:31;102619.50;;;9.51;43.26
78855;BME280;68206;59.956;30.234;2024-03-02T02:06:01;102625.72;;;9.53;43.37
78855;BME280;68206;59.956;30.234;2024-03-02T02:08:29;102620.41;;;9.53;43.66
78855;BME280;68206;59.956;30.234;2024-03-02T02:10:57;102624.84;;;9.54;43.37
78855;BME280;68206;59.956;30.234;2024-03-02T02:13:26;102623.94;;;9.53;43.71
78855;BME280;68206;59.956;30.234;2024-03-02T02:15:54;102633.66;;;9.56;43.74
78855;BME280;68206;59.956;30.234;2024-03-02T02:18:23;102636.31;;;9.56;43.21
78855;BME280;68206;59.956;30.234;2024-03-02T02:20:52;102638.94;;;9.56;43.17
78855;BME280;68206;59.956;30.234;2024-03-02T02:23:23;102642.47;;;9.56;43.59
78855;BME280;68206;59.956;30.234;2024-03-02T02:25:51;102646.91;;;9.57;43.45
78855;BME280;68206;59.956;30.234;2024-03-02T02:28:20;102646.91;;;9.57;43.62
78855;BME280;68206;59.956;30.234;2024-03-02T02:30:48;102633.69;;;9.59;43.77
78855;BME280;68206;59.956;30.234;2024-03-02T02:33:16;102636.34;;;9.59;43.65
78855;BME280;68206;59.956;30.234;2024-03-02T02:35:44;102646.94;;;9.59;43.42
78855;BME280;68206;59.956;30.234;2024-03-02T02:38:13;102645.19;;;9.61;43.33
78855;BME280;68206;59.956;30.234;2024-03-02T02:40:42;102654.03;;;9.61;43.31
78855;BME280;68206;59.956;30.234;2024-03-02T02:43:10;102660.16;;;9.62;43.41
78855;BME280;68206;59.956;30.234;2024-03-02T02:45:38;102657.53;;;9.62;42.94
78855;BME280;68206;59.956;30.234;2024-03-02T02:48:07;102657.53;;;9.62;43.34
78855;BME280;68206;59.956;30.234;2024-03-02T02:50:35;102652.25;;;9.63;43.18
78855;BME280;68206;59.956;30.234;2024-03-02T02:53:05;102657.53;;;9.63;43.48
78855;BME280;68206;59.956;30.234;2024-03-02T02:55:39;102656.66;;;9.64;43.62
78855;BME280;68206;59.956;30.234;2024-03-02T02:58:09;102654.03;;;9.66;42.94
78855;BME280;68206;59.956;30.234;2024-03-02T03:00:37;102650.50;;;9.65;43.15
78855;BME280;68206;59.956;30.234;2024-03-02T03:03:05;102646.09;;;9.66;43.51
78855;BME280;68206;59.956;30.234;2024-03-02T03:05:33;102645.22;;;9.67;43.43
78855;BME280;68206;59.956;30.234;2024-03-02T03:08:03;102639.03;;;9.68;43.10
78855;BME280;68206;59.956;30.234;2024-03-02T03:10:31;102634.59;;;9.68;43.45
78855;BME280;68206;59.956;30.234;2024-03-02T03:13:00;102631.94;;;9.68;43.16
78855;BME280;68206;59.956;30.234;2024-03-02T03:15:29;102627.53;;;9.69;43.58
78855;BME280;68206;59.956;30.234;2024-03-02T03:17:58;102633.75;;;9.71;43.95
78855;BME280;68206;59.956;30.234;2024-03-02T03:20:26;102634.63;;;9.71;43.85
78855;BME280;68206;59.956;30.234;2024-03-02T03:22:54;102628.44;;;9.71;43.56
78855;BME280;68206;59.956;30.234;2024-03-02T03:25:22;102632.88;;;9.72;43.71
78855;BME280;68206;59.956;30.234;2024-03-02T03:27:50;102630.22;;;9.74;43.75
78855;BME280;68206;59.956;30.234;2024-03-02T03:30:19;102625.81;;;9.73;43.45
78855;BME280;68206;59.956;30.234;2024-03-02T03:32:49;102628.47;;;9.74;43.41
78855;BME280;68206;59.956;30.234;2024-03-02T03:35:18;102627.56;;;9.75;43.83
78855;BME280;68206;59.956;30.234;2024-03-02T03:37:46;102621.38;;;9.76;43.43
78855;BME280;68206;59.956;30.234;2024-03-02T03:40:16;102619.63;;;9.77;43.17
78855;BME280;68206;59.956;30.234;2024-03-02T03:42:45;102623.16;;;9.77;43.64
78855;BME280;68206;59.956;30.234;2024-03-02T03:45:13;102618.75;;;9.78;43.22
78855;BME280;68206;59.956;30.234;2024-03-02T03:47:42;102633.78;;;9.79;43.73
78855;BME280;68206;59.956;30.234;2024-03-02T03:50:11;102619.66;;;9.78;44.08
78855;BME280;68206;59.956;30.234;2024-03-02T03:52:39;102625.84;;;9.80;43.39
78855;BME280;68206;59.956;30.234;2024-03-02T03:55:08;102625.84;;;9.80;43.67
78855;BME280;68206;59.956;30.234;2024-03-02T03:57:37;102636.44;;;9.82;44.08
78855;BME280;68206;59.956;30.234;2024-03-02T04:00:07;102622.28;;;9.81;43.93
78855;BME280;68206;59.956;30.234;2024-03-02T04:02:40;102629.38;;;9.82;43.92
78855;BME280;68206;59.956;30.234;2024-03-02T04:05:08;102618.75;;;9.82;43.91
78855;BME280;68206;59.956;30.234;2024-03-02T04:07:40;102626.72;;;9.82;43.64
78855;BME280;68206;59.956;30.234;2024-03-02T04:10:10;102626.72;;;9.84;43.46
78855;BME280;68206;59.956;30.234;2024-03-02T04:12:39;102626.72;;;9.84;44.21
78855;BME280;68206;59.956;30.234;2024-03-02T04:15:08;102620.56;;;9.85;43.22
78855;BME280;68206;59.956;30.234;2024-03-02T04:17:36;102624.97;;;9.86;43.74
78855;BME280;68206;59.956;30.234;2024-03-02T04:20:05;102631.16;;;9.85;43.58
78855;BME280;68206;59.956;30.234;2024-03-02T04:22:35;102626.75;;;9.87;43.58
78855;BME280;68206;59.956;30.234;2024-03-02T04:25:05;102622.31;;;9.87;43.62
78855;BME280;68206;59.956;30.234;2024-03-02T04:27:35;102625.84;;;9.88;43.29
78855;BME280;68206;59.956;30.234;2024-03-02T04:30:05;102618.78;;;9.88;43.73
78855;BME280;68206;59.956;30.234;2024-03-02T04:32:33;102620.56;;;9.89;43.40
78855;BME280;68206;59.956;30.234;2024-03-02T04:35:04;102620.56;;;9.91;43.06
78855;BME280;68206;59.956;30.234;2024-03-02T04:37:34;102617.91;;;9.89;43.37
78855;BME280;68206;59.956;30.234;2024-03-02T04:40:05;102620.56;;;9.91;43.79
78855;BME280;68206;59.956;30.234;2024-03-02T04:42:36;102627.63;;;9.90;43.87
78855;BME280;68206;59.956;30.234;2024-03-02T04:45:05;102625.88;;;9.92;43.63
78855;BME280;68206;59.956;30.234;2024-03-02T04:47:34;102624.13;;;9.93;43.67
78855;BME280;68206;59.956;30.234;2024-03-02T04:50:02;102627.63;;;9.93;43.25
78855;BME280;68206;59.956;30.234;2024-03-02T04:52:30;102624.97;;;9.93;43.43
78855;BME280;68206;59.956;30.234;2024-03-02T04:54:58;102624.09;;;9.94;44.08
78855;BME280;68206;59.956;30.234;2024-03-02T04:57:57;102628.53;;;9.95;43.78
78855;BME280;68206;59.956;30.234;2024-03-02T05:00:27;102626.75;;;9.94;42.94
78855;BME280;68206;59.956;30.234;2024-03-02T05:02:56;102630.31;;;9.96;43.62
78855;BME280;68206;59.956;30.234;2024-03-02T05:05:24;102632.97;;;9.96;43.33
78855;BME280;68206;59.956;30.234;2024-03-02T05:07:53;102635.63;;;9.98;43.30
78855;BME280;68206;59.956;30.234;2024-03-02T05:10:22;102628.53;;;9.97;43.68
78855;BME280;68206;59.956;30.234;2024-03-02T05:12:51;102630.31;;;9.98;43.65
78855;BME280;68206;59.956;30.234;2024-03-02T05:15:28;102633.88;;;9.98;43.05
78855;BME280;68206;59.956;30.234;2024-03-02T05:17:57;102631.19;;;10.00;43.73
78855;BME280;68206;59.956;30.234;2024-03-02T05:20:27;102636.50;;;10.01;44.12
78855;BME280;68206;59.956;30.234;2024-03-02T05:22:55;102630.31;;;10.01;43.29
78855;BME280;68206;59.956;30.234;2024-03-02T05:25:23;102638.28;;;10.01;43.70
78855;BME280;68206;59.956;30.234;2024-03-02T05:27:51;102626.78;;;10.02;43.38
78855;BME280;68206;59.956;30.234;2024-03-02T05:30:20;102631.22;;;10.03;43.33
78855;BME280;68206;59.956;30.234;2024-03-02T05:32:49;102625.03;;;10.02;43.04
78855;BME280;68206;59.956;30.234;2024-03-02T05:35:17;102625.03;;;10.04;42.91
78855;BME280;68206;59.956;30.234;2024-03-02T05:37:45;102624.16;;;10.03;43.61
78855;BME280;68206;59.956;30.234;2024-03-02T05:40:14;102631.22;;;10.04;43.28
78855;BME280;68206;59.956;30.234;2024-03-02T05:42:43;102642.72;;;10.05;43.34
78855;BME280;68206;59.956;30.234;2024-03-02T05:45:11;102635.66;;;10.05;43.80
78855;BME280;68206;59.956;30.234;2024-03-02T05:47:39;102640.06;;;10.06;43.09
78855;BME280;68206;59.956;30.234;2024-03-02T05:50:09;102624.16;;;10.12;48.31
78855;BME280;68206;59.956;30.234;2024-03-02T05:52:37;102624.25;;;10.28;51.39
78855;BME280;68206;59.956;30.234;2024-03-02T05:55:06;102630.47;;;10.48;52.64
78855;BME280;68206;59.956;30.234;2024-03-02T05:57:34;102625.16;;;10.63;51.92
78855;BME280;68206;59.956;30.234;2024-03-02T06:00:16;102627.84;;;10.78;51.81
78855;BME280;68206;59.956;30.234;2024-03-02T06:02:45;102630.47;;;10.93;51.59
78855;BME280;68206;59.956;30.234;2024-03-02T06:05:15;102629.59;;;11.10;50.29
78855;BME280;68206;59.956;30.234;2024-03-02T06:07:43;102631.34;;;11.23;50.03
78855;BME280;68206;59.956;30.234;2024-03-02T06:10:13;102629.56;;;11.36;49.86
78855;BME280;68206;59.956;30.234;2024-03-02T06:12:41;102628.63;;;11.44;48.98
78855;BME280;68206;59.956;30.234;2024-03-02T06:15:10;102631.28;;;11.53;48.06
78855;BME280;68206;59.956;30.234;2024-03-02T06:17:38;102624.13;;;11.66;48.99
78855;BME280;68206;59.956;30.234;2024-03-02T06:20:07;102632.97;;;11.83;48.65
78855;BME280;68206;59.956;30.234;2024-03-02T06:22:37;102632.88;;;12.01;48.55
78855;BME280;68206;59.956;30.234;2024-03-02T06:25:07;102638.09;;;12.23;48.26
78855;BME280;68206;59.956;30.234;2024-03-02T06:27:35;102631.78;;;12.39;47.07
78855;BME280;68206;59.956;30.234;2024-03-02T06:30:05;102635.22;;;12.53;46.99
78855;BME280;68206;59.956;30.234;2024-03-02T06:32:33;102638.69;;;12.63;46.01
78855;BME280;68206;59.956;30.234;2024-03-02T06:35:01;102633.31;;;12.69;45.55
78855;BME280;68206;59.956;30.234;2024-03-02T06:37:31;102649.25;;;12.76;45.65
78855;BME280;68206;59.956;30.234;2024-03-02T06:40:00;102648.31;;;12.83;45.64
78855;BME280;68206;59.956;30.234;2024-03-02T06:42:29;102641.16;;;12.88;44.92
78855;BME280;68206;59.956;30.234;2024-03-02T06:45:01;102637.59;;;12.92;45.22
78855;BME280;68206;59.956;30.234;2024-03-02T06:47:31;102632.22;;;12.97;44.66
78855;BME280;68206;59.956;30.234;2024-03-02T06:49:59;102632.16;;;13.02;44.89
78855;BME280;68206;59.956;30.234;2024-03-02T06:52:28;102642.81;;;13.05;45.16
78855;BME280;68206;59.956;30.234;2024-03-02T06:54:57;102640.09;;;13.08;44.79
78855;BME280;68206;59.956;30.234;2024-03-02T06:57:27;102637.41;;;13.11;44.00
78855;BME280;68206;59.956;30.234;2024-03-02T06:59:55;102641.84;;;13.13;43.57
78855;BME280;68206;59.956;30.234;2024-03-02T07:02:25;102656.94;;;13.16;43.36
78855;BME280;68206;59.956;30.234;2024-03-02T07:04:54;102650.75;;;13.11;41.63
78855;BME280;68206;59.956;30.234;2024-03-02T07:07:23;102654.34;;;13.05;40.58
78855;BME280;68206;59.956;30.234;2024-03-02T07:09:51;102641.09;;;12.98;40.16
78855;BME280;68206;59.956;30.234;2024-03-02T07:12:19;102640.25;;;12.91;40.12
78855;BME280;68206;59.956;30.234;2024-03-02T07:14:49;102642.09;;;12.84;40.11
78855;BME280;68206;59.956;30.234;2024-03-02T07:17:38;102647.50;;;12.74;39.81
78855;BME280;68206;59.956;30.234;2024-03-02T07:20:07;102645.78;;;12.64;39.82
78855;BME280;68206;59.956;30.234;2024-03-02T07:22:35;102642.31;;;12.54;40.29
78855;BME280;68206;59.956;30.234;2024-03-02T07:25:08;102643.25;;;12.47;40.35
78855;BME280;68206;59.956;30.234;2024-03-02T07:27:58;102638.88;;;12.38;39.83
78855;BME280;68206;59.956;30.234;2024-03-02T07:30:27;102648.69;;;12.30;40.61
78855;BME280;68206;59.956;30.234;2024-03-02T07:32:59;102638.97;;;12.23;40.43
78855;BME280;68206;59.956;30.234;2024-03-02T07:35:28;102647.88;;;12.16;40.23
78855;BME280;68206;59.956;30.234;2024-03-02T07:37:58;102647.03;;;12.08;40.10
78855;BME280;68206;59.956;30.234;2024-03-02T07:40:27;102659.47;;;12.01;40.76
78855;BME280;68206;59.956;30.234;2024-03-02T07:42:55;102671.91;;;11.96;40.86
78855;BME280;68206;59.956;30.234;2024-03-02T07:45:23;102657.75;;;11.90;40.68
78855;BME280;68206;59.956;30.234;2024-03-02T07:47:53;102658.66;;;11.84;40.71
78855;BME280;68206;59.956;30.234;2024-03-02T07:50:22;102655.13;;;11.79;41.29
78855;BME280;68206;59.956;30.234;2024-03-02T07:52:51;102660.44;;;11.75;41.31
78855;BME280;68206;59.956;30.234;2024-03-02T07:55:19;102661.31;;;11.69;41.21
78855;BME280;68206;59.956;30.234;2024-03-02T07:57:47;102666.66;;;11.66;41.71
78855;BME280;68206;59.956;30.234;2024-03-02T08:00:16;102657.81;;;11.62;40.96
78855;BME280;68206;59.956;30.234;2024-03-02T08:02:44;102662.25;;;11.59;40.95
78855;BME280;68206;59.956;30.234;2024-03-02T08:05:14;102654.31;;;11.54;41.33
78855;BME280;68206;59.956;30.234;2024-03-02T08:07:43;102667.59;;;11.51;41.60
78855;BME280;68206;59.956;30.234;2024-03-02T08:10:12;102673.81;;;11.49;41.33
78855;BME280;68206;59.956;30.234;2024-03-02T08:12:41;102669.38;;;11.46;41.55
78855;BME280;68206;59.956;30.234;2024-03-02T08:15:09;102657.88;;;11.43;42.14
78855;BME280;68206;59.956;30.234;2024-03-02T08:17:39;102664.06;;;11.40;41.21
78855;BME280;68206;59.956;30.234;2024-03-02T08:20:11;102660.53;;;11.38;42.31
78855;BME280;68206;59.956;30.234;2024-03-02T08:22:42;102660.53;;;11.35;42.15
78855;BME280;68206;59.956;30.234;2024-03-02T08:25:11;102660.53;;;11.32;41.77
78855;BME280;68206;59.956;30.234;2024-03-02T08:27:40;102654.34;;;11.30;41.67
78855;BME280;68206;59.956;30.234;2024-03-02T08:30:09;102658.78;;;11.28;41.59
78855;BME280;68206;59.956;30.234;2024-03-02T08:32:37;102667.63;;;11.25;41.58
78855;BME280;68206;59.956;30.234;2024-03-02T08:35:07;102660.53;;;11.24;41.57
78855;BME280;68206;59.956;30.234;2024-03-02T08:37:38;102668.53;;;11.23;42.24
78855;BME280;68206;59.956;30.234;2024-03-02T08:40:09;102665.00;;;11.22;42.37
78855;BME280;68206;59.956;30.234;2024-03-02T08:42:43;102664.97;;;11.21;41.74
78855;BME280;68206;59.956;30.234;2024-03-02T08:45:12;102664.97;;;11.19;42.82
78855;BME280;68206;59.956;30.234;2024-03-02T08:47:41;102669.41;;;11.19;42.83
78855;BME280;68206;59.956;30.234;2024-03-02T08:50:09;102666.78;;;11.17;42.02
78855;BME280;68206;59.956;30.234;2024-03-02T08:52:37;102670.31;;;11.16;42.02
78855;BME280;68206;59.956;30.234;2024-03-02T08:55:06;102672.97;;;11.16;42.28
78855;BME280;68206;59.956;30.234;2024-03-02T08:57:36;102671.19;;;11.15;41.74
78855;BME280;68206;59.956;30.234;2024-03-02T09:00:05;102662.34;;;11.15;42.17
78855;BME280;68206;59.956;30.234;2024-03-02T09:02:34;102666.75;;;11.14;42.69
78855;BME280;68206;59.956;30.234;2024-03-02T09:19:11;102669.41;;;11.34;42.49
78855;BME280;68206;59.956;30.234;2024-03-02T09:21:41;102666.75;;;11.36;42.24
78855;BME280;68206;59.956;30.234;2024-03-02T09:24:11;102670.28;;;11.36;42.04
78855;BME280;68206;59.956;30.234;2024-03-02T09:26:43;102664.97;;;11.36;42.58
78855;BME280;68206;59.956;30.234;2024-03-02T09:29:11;102660.53;;;11.35;42.03
78855;BME280;68206;59.956;30.234;2024-03-02T09:31:40;102660.53;;;11.33;42.13
78855;BME280;68206;59.956;30.234;2024-03-02T09:34:08;102663.19;;;11.32;42.10
78855;BME280;68206;59.956;30.234;2024-03-02T09:36:38;102667.63;;;11.31;42.29
78855;BME280;68206;59.956;30.234;2024-03-02T09:39:07;102674.69;;;11.31;42.84
78855;BME280;68206;59.956;30.234;2024-03-02T09:41:36;102675.59;;;11.28;42.15
78855;BME280;68206;59.956;30.234;2024-03-02T09:44:05;102667.63;;;11.28;42.05
78855;BME280;68206;59.956;30.234;2024-03-02T09:46:33;102669.41;;;11.28;41.56
78855;BME280;68206;59.956;30.234;2024-03-02T09:49:03;102653.47;;;11.28;41.69
78855;BME280;68206;59.956;30.234;2024-03-02T09:51:31;102656.13;;;11.28;41.96
78855;BME280;68206;59.956;30.234;2024-03-02T09:54:02;102659.66;;;11.28;42.21
78855;BME280;68206;59.956;30.234;2024-03-02T09:56:44;102657.91;;;11.29;42.56
78855;BME280;68206;59.956;30.234;2024-03-02T09:59:12;102655.25;;;11.29;41.75
78855;BME280;68206;59.956;30.234;2024-03-02T10:01:56;102657.00;;;11.30;42.15
78855;BME280;68206;59.956;30.234;2024-03-02T10:04:26;102656.09;;;11.31;42.09
78855;BME280;68206;59.956;30.234;2024-03-02T10:07:10;102664.97;;;11.31;42.99
78855;BME280;68206;59.956;30.234;2024-03-02T10:09:41;102665.84;;;11.32;43.23
78855;BME280;68206;59.956;30.234;2024-03-02T10:12:10;102662.31;;;11.33;42.01
78855;BME280;68206;59.956;30.234;2024-03-02T10:14:39;102666.75;;;11.34;42.41
78855;BME280;68206;59.956;30.234;2024-03-02T10:17:09;102667.63;;;11.35;42.92
78855;BME280;68206;59.956;30.234;2024-03-02T10:19:38;102666.75;;;11.36;42.29
78855;BME280;68206;59.956;30.234;2024-03-02T10:22:08;102672.94;;;11.36;42.65
78855;BME280;68206;59.956;30.234;2024-03-02T10:24:38;102658.75;;;11.37;42.62
78855;BME280;68206;59.956;30.234;2024-03-02T10:27:09;102660.53;;;11.40;42.34
78855;BME280;68206;59.956;30.234;2024-03-02T10:29:39;102665.84;;;11.40;42.59
78855;BME280;68206;59.956;30.234;2024-03-02T10:32:11;102664.94;;;11.39;42.19
78855;BME280;68206;59.956;30.234;2024-03-02T10:34:40;102668.50;;;11.41;42.06
78855;BME280;68206;59.956;30.234;2024-03-02T10:37:10;102660.53;;;11.41;42.09
78855;BME280;68206;59.956;30.234;2024-03-02T10:39:39;102656.09;;;11.42;42.48
78855;BME280;68206;59.956;30.234;2024-03-02T10:42:09;102664.03;;;11.43;42.44
78855;BME280;68206;59.956;30.234;2024-03-02T10:44:38;102660.50;;;11.44;42.23
78855;BME280;68206;59.956;30.234;2024-03-02T10:47:08;102659.63;;;11.45;42.94
78855;BME280;68206;59.956;30.234;2024-03-02T10:49:38;102669.38;;;11.46;42.84
78855;BME280;68206;59.956;30.234;2024-03-02T10:52:08;102669.38;;;11.48;43.04
78855;BME280;68206;59.956;30.234;2024-03-02T10:54:36;102667.59;;;11.48;42.86
78855;BME280;68206;59.956;30.234;2024-03-02T10:57:07;102680.00;;;11.49;42.20
78855;BME280;68206;59.956;30.234;2024-03-02T10:59:45;102667.56;;;11.50;42.12
78855;BME280;68206;59.956;30.234;2024-03-02T11:02:21;102663.16;;;11.50;42.98
78855;BME280;68206;59.956;30.234;2024-03-02T11:04:53;102660.50;;;11.52;42.33
78855;BME280;68206;59.956;30.234;2024-03-02T11:07:23;102651.63;;;11.51;42.48
78855;BME280;68206;59.956;30.234;2024-03-02T11:09:57;102655.19;;;11.53;42.06
78855;BME280;68206;59.956;30.234;2024-03-02T11:12:29;102656.97;;;11.54;43.01
78855;BME280;68206;59.956;30.234;2024-03-02T11:15:00;102668.47;;;11.55;42.59
78855;BME280;68206;59.956;30.234;2024-03-02T11:17:29;102666.72;;;11.55;42.13
78855;BME280;68206;59.956;30.234;2024-03-02T11:19:58;102652.50;;;11.56;42.76
78855;BME280;68206;59.956;30.234;2024-03-02T11:22:26;102640.09;;;11.57;42.70
78855;BME280;68206;59.956;30.234;2024-03-02T11:24:55;102662.25;;;11.57;42.75
78855;BME280;68206;59.956;30.234;2024-03-02T11:30:53;102647.19;;;11.58;42.77
78855;BME280;68206;59.956;30.234;2024-03-02T11:33:26;102663.13;;;11.59;42.17
78855;BME280;68206;59.956;30.234;2024-03-02T11:35:57;102662.25;;;11.60;42.42
78855;BME280;68206;59.956;30.234;2024-03-02T11:38:33;102663.13;;;11.59;42.89
78855;BME280;68206;59.956;30.234;2024-03-02T11:41:06;102664.91;;;11.60;42.71
78855;BME280;68206;59.956;30.234;2024-03-02T11:43:37;102670.22;;;11.60;42.81
78855;BME280;68206;59.956;30.234;2024-03-02T11:46:08;102660.47;;;11.61;42.51
78855;BME280;68206;59.956;30.234;2024-03-02T11:48:39;102665.81;;;11.59;42.59
78855;BME280;68206;59.956;30.234;2024-03-02T11:51:07;102670.19;;;11.62;42.57
78855;BME280;68206;59.956;30.234;2024-03-02T11:53:38;102664.03;;;11.61;42.65
78855;BME280;68206;59.956;30.234;2024-03-02T11:56:09;102669.31;;;11.63;42.33
78855;BME280;68206;59.956;30.234;2024-03-02T11:58:39;102666.69;;;11.61;42.96
78855;BME280;68206;59.956;30.234;2024-03-02T12:01:10;102649.84;;;11.61;42.91
78855;BME280;68206;59.956;30.234;2024-03-02T12:03:39;102652.47;;;11.62;42.74
78855;BME280;68206;59.956;30.234;2024-03-02T12:06:07;102655.13;;;11.62;42.00
78855;BME280;68206;59.956;30.234;2024-03-02T12:08:36;102650.75;;;11.61;42.69
78855;BME280;68206;59.956;30.234;2024-03-02T12:11:04;102649.81;;;11.62;42.41
78855;BME280;68206;59.956;30.234;2024-03-02T12:13:33;102652.50;;;11.64;42.53
78855;BME280;68206;59.956;30.234;2024-03-02T12:16:02;102657.81;;;11.65;43.01
78855;BME280;68206;59.956;30.234;2024-03-02T12:18:31;102643.63;;;11.65;42.45
78855;BME280;68206;59.956;30.234;2024-03-02T12:21:00;102655.16;;;11.65;42.82
78855;BME280;68206;59.956;30.234;2024-03-02T12:23:30;102643.63;;;11.66;42.88
78855;BME280;68206;59.956;30.234;2024-03-02T12:25:58;102640.09;;;11.66;42.92
78855;BME280;68206;59.956;30.234;2024-03-02T12:28:27;102642.75;;;11.66;42.22
78855;BME280;68206;59.956;30.234;2024-03-02T12:30:58;102636.53;;;11.67;41.96
78855;BME280;68206;59.956;30.234;2024-03-02T12:33:26;102640.09;;;11.67;41.98
78855;BME280;68206;59.956;30.234;2024-03-02T12:35:59;102647.16;;;11.68;42.56
78855;BME280;68206;59.956;30.234;2024-03-02T12:38:27;102639.19;;;11.68;42.67
78855;BME280;68206;59.956;30.234;2024-03-02T12:40:56;102636.53;;;11.70;42.60
78855;BME280;68206;59.956;30.234;2024-03-02T12:43:24;102663.97;;;11.70;41.96
78855;BME280;68206;59.956;30.234;2024-03-02T12:45:58;102645.38;;;11.72;42.69
78855;BME280;68206;59.956;30.234;2024-03-02T12:48:26;102643.59;;;11.72;41.99
78855;BME280;68206;59.956;30.234;2024-03-02T12:50:54;102635.63;;;11.72;41.96
78855;BME280;68206;59.956;30.234;2024-03-02T12:53:24;102641.00;;;11.74;42.65
78855;BME280;68206;59.956;30.234;2024-03-02T12:55:52;102631.22;;;11.73;42.18
78855;BME280;68206;59.956;30.234;2024-03-02T12:58:22;102627.66;;;11.72;41.76
78855;BME280;68206;59.956;30.234;2024-03-02T13:01:05;102633.88;;;11.70;42.44
78855;BME280;68206;59.956;30.234;2024-03-02T13:03:35;102631.22;;;11.75;41.97
78855;BME280;68206;59.956;30.234;2024-03-02T13:06:05;102634.75;;;11.75;42.21
78855;BME280;68206;59.956;30.234;2024-03-02T13:08:35;102635.63;;;11.76;42.05
78855;BME280;68206;59.956;30.234;2024-03-02T13:11:04;102632.09;;;11.77;42.37
78855;BME280;68206;59.956;30.234;2024-03-02T13:13:35;102631.22;;;11.76;42.13